Bethlehem, PA

8:46 PM EDT on July 04, 2015 (GMT -0400)
South Mountain | | Change Station
CLOSE
Current Station
Personal Weather Station
Location: Bethlehem, PA
Elevation: 505 ft
Nearby Weather Stations

Elev 505 ft 40.60 °N, 75.38 °W | Updated 12 minutes ago

Overcast
Overcast
66.7 °F
Feels Like 66.7 °F
N
0.0
Wind Variable Wind from West

Today
High -- | Low -- °F
--% Chance of Precip.
Yesterday
High -- | Low -- °F
Precip. -- in
5:35 AM 8:35 PM
Waning Gibbous, 89% visible
Pressure 29.99 in
Visibility 9.0 miles
Clouds Overcast 3500 ft
Dew Point 65 °F
Humidity 95%
Rainfall 0.20 in
Snow Depth Not available.
UV 0 out of 12
Pollen .50 out of 12
Air Quality Not available.
Flu Activity Not available.
METAR KABE 042351Z 00000KT 9SM OVC035 21/17 A2999 RMK AO2 SLP153 60001 T02060172 10239 20200 53012 $

More Conditions Fewer Conditions

Pressure 29.99 in
Visibility 9.0 miles
Clouds Overcast 3500 ft
Dew Point 65 °F
Humidity 95%
Rainfall 0.20 in
Snow Depth Not available.
UV 0 out of 12
Pollen .50 out of 12
Air Quality Not available.
Flu Activity Not available.
METAR KABE 042351Z 00000KT 9SM OVC035 21/17 A2999 RMK AO2 SLP153 60001 T02060172 10239 20200 53012 $

More Conditions Fewer Conditions

Nowcast | as of 7:00 PM EDT on July 4, 2015

At 7 PM...scattered showers and sprinkles were located over eastern Pennsylvania and western portions of New Jersey. This activity will continue to move east at 25 mph early this evening. Any rainfall will be light and brief through 830 PM.

×

10-Day Weather Forecast

×

Almanac

Astronomy

Jul. 04, 2015 Rise Set
Actual Time
Civil Twilight
Nautical Twilight
Astronomical Twilight
Moon
Length of Visible Light
Length of Day
Tomorrow will be .
, % of the Moon is Illuminated

Today's Extremes

State Highs State Lows

Community

WunderPhotos

Upload Photos

1,835,125 photos uploaded!

WunderBlogs® & News

Nearby

Air Quality

  Air Quality AQ Index Pollutant
Not available.

Snow Depth

Station Depth Elevation

Earthquake Activity

City Distance Mag. Time & Date
Minimum magnitude displayed is 2.5.

Coastal Water Temperatures

Place Temperature

Stations

Nearby Weather Stations

Station Location Temp. Windchill Dew Point Humidity Wind Precip. Elev Updated Type